sensor_id;sensor_type;location;lat;lon;timestamp;temperature;humidity
10903;DHT22;5504;47.312;11.060;2024-03-29T00:02:00;5.60;90.40
10903;DHT22;5504;47.312;11.060;2024-03-29T00:04:25;5.40;90.40
10903;DHT22;5504;47.312;11.060;2024-03-29T00:06:51;5.60;90.50
10903;DHT22;5504;47.312;11.060;2024-03-29T00:09:17;5.60;90.30
10903;DHT22;5504;47.312;11.060;2024-03-29T00:11:43;5.50;90.30
10903;DHT22;5504;47.312;11.060;2024-03-29T00:14:08;5.50;90.40
10903;DHT22;5504;47.312;11.060;2024-03-29T00:16:34;5.40;90.20
10903;DHT22;5504;47.312;11.060;2024-03-29T00:19:00;5.30;90.00
10903;DHT22;5504;47.312;11.060;2024-03-29T00:21:26;5.20;89.40
10903;DHT22;5504;47.312;11.060;2024-03-29T00:23:51;5.20;89.00
10903;DHT22;5504;47.312;11.060;2024-03-29T00:26:17;5.10;89.50
10903;DHT22;5504;47.312;11.060;2024-03-29T00:28:43;4.90;90.20
10903;DHT22;5504;47.312;11.060;2024-03-29T00:31:09;5.00;90.40
10903;DHT22;5504;47.312;11.060;2024-03-29T00:33:35;5.00;90.40
10903;DHT22;5504;47.312;11.060;2024-03-29T00:36:01;5.00;90.30
10903;DHT22;5504;47.312;11.060;2024-03-29T00:38:27;4.90;90.30
10903;DHT22;5504;47.312;11.060;2024-03-29T00:40:53;4.90;90.40
10903;DHT22;5504;47.312;11.060;2024-03-29T00:43:18;4.80;90.40
10903;DHT22;5504;47.312;11.060;2024-03-29T00:45:44;4.70;90.30
10903;DHT22;5504;47.312;11.060;2024-03-29T00:48:10;4.50;90.60
10903;DHT22;5504;47.312;11.060;2024-03-29T00:50:36;4.40;90.50
10903;DHT22;5504;47.312;11.060;2024-03-29T00:53:04;4.30;90.40
10903;DHT22;5504;47.312;11.060;2024-03-29T00:55:30;4.40;90.50
10903;DHT22;5504;47.312;11.060;2024-03-29T00:57:56;4.50;90.40
10903;DHT22;5504;47.312;11.060;2024-03-29T01:00:21;4.30;90.20
10903;DHT22;5504;47.312;11.060;2024-03-29T01:02:47;4.20;90.10
10903;DHT22;5504;47.312;11.060;2024-03-29T01:05:13;4.20;90.30
10903;DHT22;5504;47.312;11.060;2024-03-29T01:07:42;4.30;90.50
10903;DHT22;5504;47.312;11.060;2024-03-29T01:10:08;4.30;90.40
10903;DHT22;5504;47.312;11.060;2024-03-29T01:12:37;4.10;90.30
10903;DHT22;5504;47.312;11.060;2024-03-29T01:15:05;4.10;90.50
10903;DHT22;5504;47.312;11.060;2024-03-29T01:17:31;4.10;90.50
10903;DHT22;5504;47.312;11.060;2024-03-29T01:19:56;4.10;90.30
10903;DHT22;5504;47.312;11.060;2024-03-29T01:22:22;4.10;90.30
10903;DHT22;5504;47.312;11.060;2024-03-29T01:24:48;4.10;90.20
10903;DHT22;5504;47.312;11.060;2024-03-29T01:27:14;3.90;90.30
10903;DHT22;5504;47.312;11.060;2024-03-29T01:29:39;3.80;90.60
10903;DHT22;5504;47.312;11.060;2024-03-29T01:32:05;3.70;90.70
10903;DHT22;5504;47.312;11.060;2024-03-29T01:34:31;3.70;90.90
10903;DHT22;5504;47.312;11.060;2024-03-29T01:36:57;3.90;90.90
10903;DHT22;5504;47.312;11.060;2024-03-29T01:39:23;3.90;90.50
10903;DHT22;5504;47.312;11.060;2024-03-29T01:41:54;4.00;90.30
10903;DHT22;5504;47.312;11.060;2024-03-29T01:44:20;3.90;90.10
10903;DHT22;5504;47.312;11.060;2024-03-29T01:46:47;4.00;90.40
10903;DHT22;5504;47.312;11.060;2024-03-29T01:49:13;4.00;90.40
10903;DHT22;5504;47.312;11.060;2024-03-29T01:51:39;3.70;90.30
10903;DHT22;5504;47.312;11.060;2024-03-29T01:54:07;3.20;91.40
10903;DHT22;5504;47.312;11.060;2024-03-29T01:56:35;3.40;91.90
10903;DHT22;5504;47.312;11.060;2024-03-29T01:59:03;3.60;92.10
10903;DHT22;5504;47.312;11.060;2024-03-29T02:01:30;3.60;92.00
10903;DHT22;5504;47.312;11.060;2024-03-29T02:03:56;3.90;91.80
10903;DHT22;5504;47.312;11.060;2024-03-29T02:06:23;3.80;91.40
10903;DHT22;5504;47.312;11.060;2024-03-29T02:08:54;3.90;91.40
10903;DHT22;5504;47.312;11.060;2024-03-29T02:11:21;3.90;91.20
10903;DHT22;5504;47.312;11.060;2024-03-29T02:13:48;3.90;91.00
10903;DHT22;5504;47.312;11.060;2024-03-29T02:16:15;3.90;91.10
10903;DHT22;5504;47.312;11.060;2024-03-29T02:18:41;3.90;91.30
10903;DHT22;5504;47.312;11.060;2024-03-29T02:21:07;4.00;91.40
10903;DHT22;5504;47.312;11.060;2024-03-29T02:23:35;4.20;91.70
10903;DHT22;5504;47.312;11.060;2024-03-29T02:26:03;4.20;91.70
10903;DHT22;5504;47.312;11.060;2024-03-29T02:28:30;4.30;91.50
10903;DHT22;5504;47.312;11.060;2024-03-29T02:30:56;4.30;91.30
10903;DHT22;5504;47.312;11.060;2024-03-29T02:33:22;4.30;91.20
10903;DHT22;5504;47.312;11.060;2024-03-29T02:35:48;4.40;91.20
10903;DHT22;5504;47.312;11.060;2024-03-29T02:38:13;4.50;91.20
10903;DHT22;5504;47.312;11.060;2024-03-29T02:40:39;4.60;90.90
10903;DHT22;5504;47.312;11.060;2024-03-29T02:43:05;4.70;90.80
10903;DHT22;5504;47.312;11.060;2024-03-29T02:45:32;4.60;90.40
10903;DHT22;5504;47.312;11.060;2024-03-29T02:47:58;4.50;91.00
10903;DHT22;5504;47.312;11.060;2024-03-29T02:50:23;4.60;91.30
10903;DHT22;5504;47.312;11.060;2024-03-29T02:52:49;4.60;91.30
10903;DHT22;5504;47.312;11.060;2024-03-29T02:55:15;4.60;91.60
10903;DHT22;5504;47.312;11.060;2024-03-29T02:57:40;4.70;91.70
10903;DHT22;5504;47.312;11.060;2024-03-29T03:00:07;4.70;91.90
10903;DHT22;5504;47.312;11.060;2024-03-29T03:02:38;4.80;92.00
10903;DHT22;5504;47.312;11.060;2024-03-29T03:05:05;4.90;92.00
10903;DHT22;5504;47.312;11.060;2024-03-29T03:07:32;4.80;91.80
10903;DHT22;5504;47.312;11.060;2024-03-29T03:10:16;4.70;91.60
10903;DHT22;5504;47.312;11.060;2024-03-29T03:13:01;4.70;91.30
10903;DHT22;5504;47.312;11.060;2024-03-29T03:15:26;4.60;91.20
10903;DHT22;5504;47.312;11.060;2024-03-29T03:17:52;4.70;91.10
10903;DHT22;5504;47.312;11.060;2024-03-29T03:20:18;4.60;90.80
10903;DHT22;5504;47.312;11.060;2024-03-29T03:22:45;4.60;90.90
10903;DHT22;5504;47.312;11.060;2024-03-29T03:25:10;4.40;91.00
10903;DHT22;5504;47.312;11.060;2024-03-29T03:27:36;4.40;91.30
10903;DHT22;5504;47.312;11.060;2024-03-29T03:30:02;4.30;91.00
10903;DHT22;5504;47.312;11.060;2024-03-29T03:32:28;4.20;91.10
10903;DHT22;5504;47.312;11.060;2024-03-29T03:34:53;4.20;91.00
10903;DHT22;5504;47.312;11.060;2024-03-29T03:37:19;4.20;90.70
10903;DHT22;5504;47.312;11.060;2024-03-29T03:39:45;4.00;90.90
10903;DHT22;5504;47.312;11.060;2024-03-29T03:42:10;4.00;91.30
10903;DHT22;5504;47.312;11.060;2024-03-29T03:44:36;4.00;91.00
10903;DHT22;5504;47.312;11.060;2024-03-29T03:47:02;4.00;91.10
10903;DHT22;5504;47.312;11.060;2024-03-29T03:49:28;4.00;91.10
10903;DHT22;5504;47.312;11.060;2024-03-29T03:51:54;4.10;91.20
10903;DHT22;5504;47.312;11.060;2024-03-29T03:54:19;4.00;91.10
10903;DHT22;5504;47.312;11.060;2024-03-29T03:56:45;4.10;91.00
10903;DHT22;5504;47.312;11.060;2024-03-29T03:59:11;4.10;90.80
10903;DHT22;5504;47.312;11.060;2024-03-29T04:01:37;4.00;91.10
10903;DHT22;5504;47.312;11.060;2024-03-29T04:04:02;4.00;91.30
10903;DHT22;5504;47.312;11.060;2024-03-29T04:06:28;4.10;91.00
10903;DHT22;5504;47.312;11.060;2024-03-29T04:08:54;3.90;90.90
10903;DHT22;5504;47.312;11.060;2024-03-29T04:11:19;4.00;91.00
10903;DHT22;5504;47.312;11.060;2024-03-29T04:13:45;4.00;90.80
10903;DHT22;5504;47.312;11.060;2024-03-29T04:16:11;4.00;90.60
10903;DHT22;5504;47.312;11.060;2024-03-29T04:18:37;3.90;90.60
10903;DHT22;5504;47.312;11.060;2024-03-29T04:21:04;3.90;90.60
10903;DHT22;5504;47.312;11.060;2024-03-29T04:23:30;3.90;90.50
10903;DHT22;5504;47.312;11.060;2024-03-29T04:25:57;3.80;90.50
10903;DHT22;5504;47.312;11.060;2024-03-29T04:28:24;3.70;90.10
10903;DHT22;5504;47.312;11.060;2024-03-29T04:30:54;3.60;90.40
10903;DHT22;5504;47.312;11.060;2024-03-29T04:33:20;3.70;90.70
10903;DHT22;5504;47.312;11.060;2024-03-29T04:36:00;3.60;90.60
10903;DHT22;5504;47.312;11.060;2024-03-29T04:38:26;3.60;90.50
10903;DHT22;5504;47.312;11.060;2024-03-29T04:40:54;3.60;90.40
10903;DHT22;5504;47.312;11.060;2024-03-29T04:43:22;3.60;90.60
10903;DHT22;5504;47.312;11.060;2024-03-29T04:45:48;3.50;90.20
10903;DHT22;5504;47.312;11.060;2024-03-29T04:48:14;3.30;90.60
10903;DHT22;5504;47.312;11.060;2024-03-29T04:50:41;3.30;91.00
10903;DHT22;5504;47.312;11.060;2024-03-29T04:53:08;3.30;91.00
10903;DHT22;5504;47.312;11.060;2024-03-29T04:55:34;3.30;90.90
10903;DHT22;5504;47.312;11.060;2024-03-29T04:58:00;3.40;90.90
10903;DHT22;5504;47.312;11.060;2024-03-29T05:00:26;3.40;90.80
10903;DHT22;5504;47.312;11.060;2024-03-29T05:02:52;3.30;91.00
10903;DHT22;5504;47.312;11.060;2024-03-29T05:05:17;3.30;91.20
10903;DHT22;5504;47.312;11.060;2024-03-29T05:07:43;3.40;90.90
10903;DHT22;5504;47.312;11.060;2024-03-29T05:10:09;3.40;90.80
10903;DHT22;5504;47.312;11.060;2024-03-29T05:12:35;3.40;90.80
10903;DHT22;5504;47.312;11.060;2024-03-29T05:15:01;3.40;90.60
10903;DHT22;5504;47.312;11.060;2024-03-29T05:17:27;3.40;90.60
10903;DHT22;5504;47.312;11.060;2024-03-29T05:19:54;3.60;90.60
10903;DHT22;5504;47.312;11.060;2024-03-29T05:22:20;3.40;90.40
10903;DHT22;5504;47.312;11.060;2024-03-29T05:24:46;3.40;90.50
10903;DHT22;5504;47.312;11.060;2024-03-29T05:27:12;3.30;90.70
10903;DHT22;5504;47.312;11.060;2024-03-29T05:29:38;3.30;90.80
10903;DHT22;5504;47.312;11.060;2024-03-29T05:32:07;3.00;91.10
10903;DHT22;5504;47.312;11.060;2024-03-29T05:34:33;2.80;91.50
10903;DHT22;5504;47.312;11.060;2024-03-29T05:36:59;3.10;91.90
10903;DHT22;5504;47.312;11.060;2024-03-29T05:39:24;3.20;91.90
10903;DHT22;5504;47.312;11.060;2024-03-29T05:41:50;3.30;91.60
10903;DHT22;5504;47.312;11.060;2024-03-29T05:44:16;3.40;91.60
10903;DHT22;5504;47.312;11.060;2024-03-29T05:46:42;3.60;91.30
10903;DHT22;5504;47.312;11.060;2024-03-29T05:49:08;3.70;91.30
10903;DHT22;5504;47.312;11.060;2024-03-29T05:51:34;3.70;91.30
10903;DHT22;5504;47.312;11.060;2024-03-29T05:54:00;3.70;91.20
10903;DHT22;5504;47.312;11.060;2024-03-29T05:56:26;3.90;91.40
10903;DHT22;5504;47.312;11.060;2024-03-29T05:58:52;4.10;90.90
10903;DHT22;5504;47.312;11.060;2024-03-29T06:01:17;4.10;91.10
10903;DHT22;5504;47.312;11.060;2024-03-29T06:03:43;3.90;91.00
10903;DHT22;5504;47.312;11.060;2024-03-29T06:06:09;3.60;91.40
10903;DHT22;5504;47.312;11.060;2024-03-29T06:08:43;3.70;91.90
10903;DHT22;5504;47.312;11.060;2024-03-29T06:11:09;3.90;92.10
10903;DHT22;5504;47.312;11.060;2024-03-29T06:13:34;3.90;91.70
10903;DHT22;5504;47.312;11.060;2024-03-29T06:16:25;3.90;92.10
10903;DHT22;5504;47.312;11.060;2024-03-29T06:19:10;4.20;92.10
10903;DHT22;5504;47.312;11.060;2024-03-29T06:21:36;4.60;92.00
10903;DHT22;5504;47.312;11.060;2024-03-29T06:24:10;5.00;91.50
10903;DHT22;5504;47.312;11.060;2024-03-29T06:26:40;5.40;91.60
10903;DHT22;5504;47.312;11.060;2024-03-29T06:29:07;5.80;90.50
10903;DHT22;5504;47.312;11.060;2024-03-29T06:31:35;5.90;88.50
10903;DHT22;5504;47.312;11.060;2024-03-29T06:34:01;5.90;88.30
10903;DHT22;5504;47.312;11.060;2024-03-29T06:36:27;6.00;88.10
10903;DHT22;5504;47.312;11.060;2024-03-29T06:38:56;6.00;87.70
10903;DHT22;5504;47.312;11.060;2024-03-29T06:41:22;6.00;88.00
10903;DHT22;5504;47.312;11.060;2024-03-29T06:43:47;6.20;88.90
10903;DHT22;5504;47.312;11.060;2024-03-29T06:46:14;6.60;89.00
10903;DHT22;5504;47.312;11.060;2024-03-29T06:48:40;6.90;87.00
10903;DHT22;5504;47.312;11.060;2024-03-29T06:51:06;6.70;86.10
10903;DHT22;5504;47.312;11.060;2024-03-29T06:53:32;7.30;88.40
10903;DHT22;5504;47.312;11.060;2024-03-29T06:56:00;8.00;86.70
10903;DHT22;5504;47.312;11.060;2024-03-29T06:58:29;8.20;83.00
10903;DHT22;5504;47.312;11.060;2024-03-29T07:00:55;8.30;82.70
10903;DHT22;5504;47.312;11.060;2024-03-29T07:03:20;7.90;84.50
10903;DHT22;5504;47.312;11.060;2024-03-29T07:05:46;8.00;85.10
10903;DHT22;5504;47.312;11.060;2024-03-29T07:08:12;8.40;83.90
10903;DHT22;5504;47.312;11.060;2024-03-29T07:10:38;8.40;83.10
10903;DHT22;5504;47.312;11.060;2024-03-29T07:13:08;8.40;84.90
10903;DHT22;5504;47.312;11.060;2024-03-29T07:15:35;9.00;83.60
10903;DHT22;5504;47.312;11.060;2024-03-29T07:18:01;9.50;83.00
10903;DHT22;5504;47.312;11.060;2024-03-29T07:20:29;9.00;80.60
10903;DHT22;5504;47.312;11.060;2024-03-29T07:22:55;8.90;82.70
10903;DHT22;5504;47.312;11.060;2024-03-29T07:25:20;9.90;83.30
10903;DHT22;5504;47.312;11.060;2024-03-29T07:27:46;9.90;80.20
10903;DHT22;5504;47.312;11.060;2024-03-29T07:30:12;10.50;80.20
10903;DHT22;5504;47.312;11.060;2024-03-29T07:32:39;9.80;79.80
10903;DHT22;5504;47.312;11.060;2024-03-29T07:35:05;10.50;81.40
10903;DHT22;5504;47.312;11.060;2024-03-29T07:37:31;10.50;78.40
10903;DHT22;5504;47.312;11.060;2024-03-29T07:39:57;10.60;79.30
10903;DHT22;5504;47.312;11.060;2024-03-29T07:42:23;9.30;80.10
10903;DHT22;5504;47.312;11.060;2024-03-29T07:44:49;9.00;83.70
10903;DHT22;5504;47.312;11.060;2024-03-29T07:47:14;8.50;86.20
10903;DHT22;5504;47.312;11.060;2024-03-29T07:49:41;9.20;83.50
10903;DHT22;5504;47.312;11.060;2024-03-29T07:52:07;8.70;84.60
10903;DHT22;5504;47.312;11.060;2024-03-29T07:54:34;9.20;84.70
10903;DHT22;5504;47.312;11.060;2024-03-29T07:57:00;10.40;83.50
10903;DHT22;5504;47.312;11.060;2024-03-29T07:59:27;11.00;79.70
10903;DHT22;5504;47.312;11.060;2024-03-29T08:01:53;10.80;80.30
10903;DHT22;5504;47.312;11.060;2024-03-29T08:04:20;11.10;80.90
10903;DHT22;5504;47.312;11.060;2024-03-29T08:06:46;11.20;78.10
10903;DHT22;5504;47.312;11.060;2024-03-29T08:09:12;11.10;78.20
10903;DHT22;5504;47.312;11.060;2024-03-29T08:11:39;10.50;79.30
10903;DHT22;5504;47.312;11.060;2024-03-29T08:14:05;10.60;81.30
10903;DHT22;5504;47.312;11.060;2024-03-29T08:16:32;10.90;79.30
10903;DHT22;5504;47.312;11.060;2024-03-29T08:18:57;11.60;80.40
10903;DHT22;5504;47.312;11.060;2024-03-29T08:21:24;12.10;79.70
10903;DHT22;5504;47.312;11.060;2024-03-29T08:23:53;12.00;76.40
10903;DHT22;5504;47.312;11.060;2024-03-29T08:26:21;12.30;77.60
10903;DHT22;5504;47.312;11.060;2024-03-29T08:28:46;12.10;73.80
10903;DHT22;5504;47.312;11.060;2024-03-29T08:31:12;12.60;75.40
10903;DHT22;5504;47.312;11.060;2024-03-29T08:33:38;11.90;74.40
10903;DHT22;5504;47.312;11.060;2024-03-29T08:36:05;11.90;76.70
10903;DHT22;5504;47.312;11.060;2024-03-29T08:38:32;12.10;75.20
10903;DHT22;5504;47.312;11.060;2024-03-29T08:40:57;11.60;75.60
10903;DHT22;5504;47.312;11.060;2024-03-29T08:43:23;11.80;77.10
10903;DHT22;5504;47.312;11.060;2024-03-29T08:45:49;12.20;75.60
10903;DHT22;5504;47.312;11.060;2024-03-29T08:48:15;12.70;75.90
10903;DHT22;5504;47.312;11.060;2024-03-29T08:50:41;12.70;71.60
10903;DHT22;5504;47.312;11.060;2024-03-29T08:53:07;12.60;73.40
10903;DHT22;5504;47.312;11.060;2024-03-29T08:55:33;11.50;75.60
10903;DHT22;5504;47.312;11.060;2024-03-29T08:58:01;12.10;79.00
10903;DHT22;5504;47.312;11.060;2024-03-29T09:00:28;12.00;76.60
10903;DHT22;5504;47.312;11.060;2024-03-29T09:02:54;12.60;75.50
10903;DHT22;5504;47.312;11.060;2024-03-29T09:05:21;13.20;76.30
10903;DHT22;5504;47.312;11.060;2024-03-29T09:07:50;13.50;70.50
10903;DHT22;5504;47.312;11.060;2024-03-29T09:10:17;13.20;72.30
10903;DHT22;5504;47.312;11.060;2024-03-29T09:12:42;13.40;74.90
10903;DHT22;5504;47.312;11.060;2024-03-29T09:15:09;14.20;75.70
10903;DHT22;5504;47.312;11.060;2024-03-29T09:17:39;14.50;70.40
10903;DHT22;5504;47.312;11.060;2024-03-29T09:20:06;14.60;68.40
10903;DHT22;5504;47.312;11.060;2024-03-29T09:22:32;14.50;71.90
10903;DHT22;5504;47.312;11.060;2024-03-29T09:24:57;14.60;71.30
10903;DHT22;5504;47.312;11.060;2024-03-29T09:27:23;16.10;72.00
10903;DHT22;5504;47.312;11.060;2024-03-29T09:29:49;16.70;64.40
10903;DHT22;5504;47.312;11.060;2024-03-29T09:32:15;17.30;66.80
10903;DHT22;5504;47.312;11.060;2024-03-29T09:34:45;17.50;64.70
10903;DHT22;5504;47.312;11.060;2024-03-29T09:37:11;16.70;62.80
10903;DHT22;5504;47.312;11.060;2024-03-29T09:39:38;16.50;64.00
10903;DHT22;5504;47.312;11.060;2024-03-29T09:42:06;16.70;63.50
10903;DHT22;5504;47.312;11.060;2024-03-29T09:44:34;17.20;63.10
10903;DHT22;5504;47.312;11.060;2024-03-29T09:47:03;16.40;62.10
10903;DHT22;5504;47.312;11.060;2024-03-29T09:49:32;16.50;62.20
10903;DHT22;5504;47.312;11.060;2024-03-29T09:52:05;16.40;60.20
10903;DHT22;5504;47.312;11.060;2024-03-29T09:54:32;16.30;62.40
10903;DHT22;5504;47.312;11.060;2024-03-29T09:56:59;16.90;61.50
10903;DHT22;5504;47.312;11.060;2024-03-29T09:59:24;17.70;61.30
10903;DHT22;5504;47.312;11.060;2024-03-29T10:01:55;17.90;58.60
10903;DHT22;5504;47.312;11.060;2024-03-29T10:04:23;18.50;58.10
10903;DHT22;5504;47.312;11.060;2024-03-29T10:06:49;18.80;57.90
10903;DHT22;5504;47.312;11.060;2024-03-29T10:09:18;17.40;57.50
10903;DHT22;5504;47.312;11.060;2024-03-29T10:11:44;17.30;57.90
10903;DHT22;5504;47.312;11.060;2024-03-29T10:14:10;17.30;58.50
10903;DHT22;5504;47.312;11.060;2024-03-29T10:16:36;17.20;58.20
10903;DHT22;5504;47.312;11.060;2024-03-29T10:19:04;17.40;58.90
10903;DHT22;5504;47.312;11.060;2024-03-29T10:21:32;17.90;58.60
10903;DHT22;5504;47.312;11.060;2024-03-29T10:23:57;18.10;58.30
10903;DHT22;5504;47.312;11.060;2024-03-29T10:26:23;18.30;57.70
10903;DHT22;5504;47.312;11.060;2024-03-29T10:28:50;18.30;57.00
10903;DHT22;5504;47.312;11.060;2024-03-29T10:31:17;19.00;58.10
10903;DHT22;5504;47.312;11.060;2024-03-29T10:33:44;18.80;53.20
10903;DHT22;5504;47.312;11.060;2024-03-29T10:36:10;17.80;52.60
10903;DHT22;5504;47.312;11.060;2024-03-29T10:38:38;19.10;57.20
10903;DHT22;5504;47.312;11.060;2024-03-29T10:41:07;20.40;55.80
10903;DHT22;5504;47.312;11.060;2024-03-29T10:43:33;21.60;53.50
10903;DHT22;5504;47.312;11.060;2024-03-29T10:46:03;22.40;51.50
10903;DHT22;5504;47.312;11.060;2024-03-29T10:48:30;22.10;49.20
10903;DHT22;5504;47.312;11.060;2024-03-29T10:51:01;22.60;52.00
10903;DHT22;5504;47.312;11.060;2024-03-29T10:53:29;23.30;50.40
10903;DHT22;5504;47.312;11.060;2024-03-29T10:55:57;22.90;48.80
10903;DHT22;5504;47.312;11.060;2024-03-29T10:58:28;22.10;49.40
10903;DHT22;5504;47.312;11.060;2024-03-29T11:00:57;21.40;47.10
10903;DHT22;5504;47.312;11.060;2024-03-29T11:03:33;19.50;51.40
10903;DHT22;5504;47.312;11.060;2024-03-29T11:06:03;18.70;53.50
10903;DHT22;5504;47.312;11.060;2024-03-29T11:08:33;20.20;54.50
10903;DHT22;5504;47.312;11.060;2024-03-29T11:11:01;19.60;53.20
10903;DHT22;5504;47.312;11.060;2024-03-29T11:16:18;19.20;55.20
10903;DHT22;5504;47.312;11.060;2024-03-29T11:18:47;20.60;54.40
10903;DHT22;5504;47.312;11.060;2024-03-29T11:21:15;21.50;50.60
10903;DHT22;5504;47.312;11.060;2024-03-29T11:23:48;21.80;53.10
10903;DHT22;5504;47.312;11.060;2024-03-29T11:26:15;21.60;53.30
10903;DHT22;5504;47.312;11.060;2024-03-29T11:28:41;21.60;54.00
10903;DHT22;5504;47.312;11.060;2024-03-29T11:31:09;21.60;49.90
10903;DHT22;5504;47.312;11.060;2024-03-29T11:36:12;19.40;54.00
10903;DHT22;5504;47.312;11.060;2024-03-29T11:38:39;19.60;54.20
10903;DHT22;5504;47.312;11.060;2024-03-29T11:41:16;19.10;52.50
10903;DHT22;5504;47.312;11.060;2024-03-29T11:43:42;20.30;53.80
10903;DHT22;5504;47.312;11.060;2024-03-29T11:46:10;20.60;55.70
10903;DHT22;5504;47.312;11.060;2024-03-29T11:48:36;20.80;56.10
10903;DHT22;5504;47.312;11.060;2024-03-29T11:51:04;21.10;55.00
10903;DHT22;5504;47.312;11.060;2024-03-29T11:53:30;21.90;55.60
10903;DHT22;5504;47.312;11.060;2024-03-29T11:56:00;22.30;51.60
10903;DHT22;5504;47.312;11.060;2024-03-29T11:58:27;22.30;52.30
10903;DHT22;5504;47.312;11.060;2024-03-29T12:00:54;21.90;54.20
10903;DHT22;5504;47.312;11.060;2024-03-29T12:03:22;22.30;53.90
10903;DHT22;5504;47.312;11.060;2024-03-29T12:05:49;22.60;52.80
10903;DHT22;5504;47.312;11.060;2024-03-29T12:08:16;22.70;52.50
10903;DHT22;5504;47.312;11.060;2024-03-29T12:10:42;22.40;52.80
10903;DHT22;5504;47.312;11.060;2024-03-29T12:13:08;22.30;51.20
10903;DHT22;5504;47.312;11.060;2024-03-29T12:15:35;21.60;52.20
10903;DHT22;5504;47.312;11.060;2024-03-29T12:18:02;21.70;54.60
10903;DHT22;5504;47.312;11.060;2024-03-29T12:20:32;21.20;51.20
10903;DHT22;5504;47.312;11.060;2024-03-29T12:23:02;20.60;50.60
10903;DHT22;5504;47.312;11.060;2024-03-29T12:25:30;20.60;53.60
10903;DHT22;5504;47.312;11.060;2024-03-29T12:27:58;19.90;50.50
10903;DHT22;5504;47.312;11.060;2024-03-29T12:30:24;19.00;51.50
10903;DHT22;5504;47.312;11.060;2024-03-29T12:33:14;18.90;54.20
10903;DHT22;5504;47.312;11.060;2024-03-29T12:35:44;19.50;52.70
10903;DHT22;5504;47.312;11.060;2024-03-29T12:38:12;19.50;51.70
10903;DHT22;5504;47.312;11.060;2024-03-29T12:40:40;20.30;54.30
10903;DHT22;5504;47.312;11.060;2024-03-29T12:43:07;20.30;50.20
10903;DHT22;5504;47.312;11.060;2024-03-29T12:45:34;20.70;52.90
10903;DHT22;5504;47.312;11.060;2024-03-29T12:48:00;20.40;49.00
10903;DHT22;5504;47.312;11.060;2024-03-29T12:50:31;19.70;50.00
10903;DHT22;5504;47.312;11.060;2024-03-29T12:53:01;20.10;50.80
10903;DHT22;5504;47.312;11.060;2024-03-29T12:55:29;20.80;50.20
10903;DHT22;5504;47.312;11.060;2024-03-29T12:58:01;20.90;49.50
10903;DHT22;5504;47.312;11.060;2024-03-29T13:00:33;20.50;48.00
10903;DHT22;5504;47.312;11.060;2024-03-29T13:02:59;20.50;50.70
10903;DHT22;5504;47.312;11.060;2024-03-29T13:05:24;20.60;50.50
10903;DHT22;5504;47.312;11.060;2024-03-29T13:07:50;20.90;49.50
10903;DHT22;5504;47.312;11.060;2024-03-29T13:10:16;21.40;51.60
10903;DHT22;5504;47.312;11.060;2024-03-29T13:12:47;21.60;50.70
10903;DHT22;5504;47.312;11.060;2024-03-29T13:17:41;21.70;52.00
10903;DHT22;5504;47.312;11.060;2024-03-29T13:20:07;21.50;50.80
10903;DHT22;5504;47.312;11.060;2024-03-29T13:22:34;21.50;51.40
10903;DHT22;5504;47.312;11.060;2024-03-29T13:25:00;21.40;51.30
10903;DHT22;5504;47.312;11.060;2024-03-29T13:27:25;21.30;50.70
10903;DHT22;5504;47.312;11.060;2024-03-29T13:29:51;21.50;51.40
10903;DHT22;5504;47.312;11.060;2024-03-29T13:32:18;21.80;50.50
10903;DHT22;5504;47.312;11.060;2024-03-29T13:34:44;21.90;50.80
10903;DHT22;5504;47.312;11.060;2024-03-29T13:37:09;21.90;49.70
10903;DHT22;5504;47.312;11.060;2024-03-29T13:39:36;21.90;50.10
10903;DHT22;5504;47.312;11.060;2024-03-29T13:42:01;21.90;50.10
10903;DHT22;5504;47.312;11.060;2024-03-29T13:44:27;21.00;49.20
10903;DHT22;5504;47.312;11.060;2024-03-29T13:46:53;20.10;51.50
10903;DHT22;5504;47.312;11.060;2024-03-29T13:49:19;20.40;53.80
10903;DHT22;5504;47.312;11.060;2024-03-29T13:51:47;19.90;50.60
10903;DHT22;5504;47.312;11.060;2024-03-29T13:54:13;20.30;51.80
10903;DHT22;5504;47.312;11.060;2024-03-29T13:56:39;20.60;53.40
10903;DHT22;5504;47.312;11.060;2024-03-29T13:59:05;19.80;56.00
10903;DHT22;5504;47.312;11.060;2024-03-29T14:01:30;20.00;56.20
10903;DHT22;5504;47.312;11.060;2024-03-29T14:03:56;19.90;55.90
10903;DHT22;5504;47.312;11.060;2024-03-29T14:06:22;20.00;57.00
10903;DHT22;5504;47.312;11.060;2024-03-29T14:08:48;19.70;57.20
10903;DHT22;5504;47.312;11.060;2024-03-29T14:11:13;19.80;56.00
10903;DHT22;5504;47.312;11.060;2024-03-29T14:13:40;19.90;54.90
10903;DHT22;5504;47.312;11.060;2024-03-29T14:16:06;20.40;54.60
10903;DHT22;5504;47.312;11.060;2024-03-29T14:18:32;20.20;53.50
10903;DHT22;5504;47.312;11.060;2024-03-29T14:20:57;20.10;55.80
10903;DHT22;5504;47.312;11.060;2024-03-29T14:23:23;20.30;56.40
10903;DHT22;5504;47.312;11.060;2024-03-29T14:25:51;20.50;55.80
10903;DHT22;5504;47.312;11.060;2024-03-29T14:28:17;20.50;55.30
10903;DHT22;5504;47.312;11.060;2024-03-29T14:30:43;20.50;52.90
10903;DHT22;5504;47.312;11.060;2024-03-29T14:33:08;20.80;54.40
10903;DHT22;5504;47.312;11.060;2024-03-29T14:35:35;21.00;54.00
10903;DHT22;5504;47.312;11.060;2024-03-29T14:38:01;21.20;52.30
10903;DHT22;5504;47.312;11.060;2024-03-29T14:40:26;21.40;50.70
10903;DHT22;5504;47.312;11.060;2024-03-29T14:42:53;21.00;49.10
10903;DHT22;5504;47.312;11.060;2024-03-29T14:45:23;21.40;51.10
10903;DHT22;5504;47.312;11.060;2024-03-29T14:47:49;21.80;52.10
10903;DHT22;5504;47.312;11.060;2024-03-29T14:50:15;22.00;50.10
10903;DHT22;5504;47.312;11.060;2024-03-29T14:52:41;21.90;49.80
10903;DHT22;5504;47.312;11.060;2024-03-29T14:55:07;22.20;50.30
10903;DHT22;5504;47.312;11.060;2024-03-29T14:57:33;22.20;52.30
10903;DHT22;5504;47.312;11.060;2024-03-29T14:59:59;21.60;50.80
10903;DHT22;5504;47.312;11.060;2024-03-29T15:02:24;21.70;51.20
10903;DHT22;5504;47.312;11.060;2024-03-29T15:04:50;21.40;49.70
10903;DHT22;5504;47.312;11.060;2024-03-29T15:07:16;20.70;51.10
10903;DHT22;5504;47.312;11.060;2024-03-29T15:09:42;21.30;51.80
10903;DHT22;5504;47.312;11.060;2024-03-29T15:12:07;21.70;51.80
10903;DHT22;5504;47.312;11.060;2024-03-29T15:14:34;22.00;52.10
10903;DHT22;5504;47.312;11.060;2024-03-29T15:17:01;22.10;50.90
10903;DHT22;5504;47.312;11.060;2024-03-29T15:19:27;21.60;50.70
10903;DHT22;5504;47.312;11.060;2024-03-29T15:21:54;21.00;51.10
10903;DHT22;5504;47.312;11.060;2024-03-29T15:24:21;20.50;51.60
10903;DHT22;5504;47.312;11.060;2024-03-29T15:26:47;20.80;53.40
10903;DHT22;5504;47.312;11.060;2024-03-29T15:29:14;21.10;53.10
10903;DHT22;5504;47.312;11.060;2024-03-29T15:31:42;21.50;54.70
10903;DHT22;5504;47.312;11.060;2024-03-29T15:34:09;21.50;54.30
10903;DHT22;5504;47.312;11.060;2024-03-29T15:36:36;20.80;51.70
10903;DHT22;5504;47.312;11.060;2024-03-29T15:39:03;21.00;54.60
10903;DHT22;5504;47.312;11.060;2024-03-29T15:41:35;20.90;52.80
10903;DHT22;5504;47.312;11.060;2024-03-29T15:44:04;21.00;52.10